Terminal Aerodrome Forecast
Issued by NWS Boston, MA

Home | Current Version | Previous Version | Text Only | Print | Product List | Glossary On
Versions: 1 2 3 4 5 6 7 8 9 10 11 12 13 14 15 16 17 18 19 20 21 22 23
000
FTUS41 KBOX 130533
TAFBDL
TAF
KBDL 130533Z 1306/1412 32011G25KT P6SM BKN060
     FM131200 27011G23KT P6SM SCT250
     FM131600 29019G30KT P6SM BKN045
     FM132100 28018G35KT P6SM FEW250
     FM140100 27010G23KT P6SM FEW250
     FM140600 25006KT P6SM VCSH OVC060
     FM141100 28004KT P6SM BKN040=

USA.gov is the U.S. government's official web portal to all federal, state and local government web resources and services.